createdAt,value
2018-06-21T00:01:03.013Z,99.90
2018-06-21T00:03:31.026Z,99.90
2018-06-21T00:05:59.054Z,99.90
2018-06-21T00:08:27.070Z,99.90
2018-06-21T00:10:55.094Z,99.90
2018-06-21T00:13:23.139Z,99.90
2018-06-21T00:15:51.158Z,99.90
2018-06-21T00:18:19.191Z,99.90
2018-06-21T00:20:47.235Z,99.90
2018-06-21T00:23:15.255Z,99.90
2018-06-21T00:25:43.270Z,99.90
2018-06-21T00:28:11.534Z,99.90
2018-06-21T00:30:38.898Z,99.90
2018-06-21T00:35:34.742Z,99.90
2018-06-21T00:38:02.774Z,99.90
2018-06-21T00:40:30.954Z,99.90
2018-06-21T00:42:59.006Z,99.90
2018-06-21T00:45:27.026Z,99.90
2018-06-21T00:47:55.046Z,99.90
2018-06-21T00:50:23.109Z,99.90
2018-06-21T00:52:51.123Z,99.90
2018-06-21T00:55:24.297Z,99.90
2018-06-21T00:57:51.670Z,99.90
2018-06-21T01:00:19.039Z,99.90
2018-06-21T01:02:46.405Z,99.90
2018-06-21T01:05:13.765Z,99.90
2018-06-21T01:07:41.130Z,99.90
2018-06-21T01:10:09.158Z,99.90
2018-06-21T01:15:05.218Z,99.90
2018-06-21T01:17:33.245Z,99.90
2018-06-21T01:20:01.271Z,99.90
2018-06-21T01:22:29.307Z,99.90
2018-06-21T01:27:25.126Z,99.90
2018-06-21T01:29:53.163Z,99.90
2018-06-21T01:32:21.192Z,99.90
2018-06-21T01:34:49.231Z,99.90
2018-06-21T01:37:17.257Z,99.90
2018-06-21T01:39:45.270Z,99.90
2018-06-21T01:42:13.307Z,99.90
2018-06-21T01:44:41.318Z,99.90
2018-06-21T01:47:09.386Z,99.90
2018-06-21T01:49:37.442Z,99.90
2018-06-21T01:52:05.650Z,99.90
2018-06-21T01:54:33.678Z,99.90
2018-06-21T01:57:01.711Z,99.90
2018-06-21T01:59:29.746Z,99.90
2018-06-21T02:01:57.790Z,99.90
2018-06-21T02:04:25.854Z,99.90
2018-06-21T02:09:21.711Z,99.90
2018-06-21T02:11:49.746Z,99.90
2018-06-21T02:14:17.761Z,99.90
2018-06-21T02:16:45.800Z,99.90
2018-06-21T02:19:13.830Z,99.90
2018-06-21T02:21:41.858Z,99.90
2018-06-21T02:24:09.918Z,99.90
2018-06-21T02:26:37.938Z,99.90
2018-06-21T02:31:33.815Z,99.90
2018-06-21T02:34:01.839Z,99.90
2018-06-21T02:36:29.855Z,99.90
2018-06-21T02:38:57.886Z,99.90
2018-06-21T02:41:25.935Z,99.90
2018-06-21T02:43:54.077Z,99.90
2018-06-21T02:46:22.111Z,99.90
2018-06-21T02:48:50.171Z,99.90
2018-06-21T02:51:18.191Z,99.90
2018-06-21T02:53:46.206Z,99.90
2018-06-21T02:56:14.356Z,99.90
2018-06-21T02:58:42.390Z,99.90
2018-06-21T03:01:10.402Z,99.90
2018-06-21T03:03:38.478Z,99.90
2018-06-21T03:06:06.618Z,99.90
2018-06-21T03:08:34.643Z,99.90
2018-06-21T03:11:02.671Z,99.90
2018-06-21T03:13:30.711Z,99.90
2018-06-21T03:15:58.731Z,99.90
2018-06-21T03:18:26.796Z,99.90
2018-06-21T03:20:54.827Z,99.90
2018-06-21T03:23:22.847Z,99.90
2018-06-21T03:25:50.878Z,99.90
2018-06-21T03:28:18.910Z,99.90
2018-06-21T03:30:46.951Z,99.90
2018-06-21T03:33:14.970Z,99.90
2018-06-21T03:35:43.007Z,99.90
2018-06-21T03:38:11.043Z,99.90
2018-06-21T03:40:39.078Z,99.90
2018-06-21T03:43:07.111Z,99.90
2018-06-21T03:45:35.138Z,99.90
2018-06-21T03:48:03.166Z,99.90
2018-06-21T03:50:31.191Z,99.90
2018-06-21T03:52:59.210Z,99.90
2018-06-21T03:55:27.226Z,99.90
2018-06-21T03:57:55.282Z,99.90
2018-06-21T04:00:23.307Z,99.90
2018-06-21T04:02:51.363Z,99.90
2018-06-21T04:05:19.397Z,99.90
2018-06-21T04:07:47.442Z,99.90
2018-06-21T04:10:15.484Z,99.90
2018-06-21T04:12:43.515Z,99.90
2018-06-21T04:15:11.531Z,99.90
2018-06-21T04:17:39.566Z,99.90
2018-06-21T04:20:07.595Z,99.90
2018-06-21T04:25:03.475Z,99.90
2018-06-21T04:27:31.508Z,99.90
2018-06-21T04:29:59.558Z,99.90
2018-06-21T04:32:27.619Z,99.90
2018-06-21T04:34:55.610Z,99.90
2018-06-21T04:37:23.622Z,99.90
2018-06-21T04:39:51.646Z,99.90
2018-06-21T04:44:47.516Z,99.90
2018-06-21T04:47:15.539Z,99.90
2018-06-21T04:49:43.647Z,99.90
2018-06-21T04:52:11.689Z,99.90
2018-06-21T04:57:08.350Z,99.90
2018-06-21T04:59:36.394Z,99.90
2018-06-21T05:02:04.436Z,99.90
2018-06-21T05:04:32.466Z,99.90
2018-06-21T05:07:00.491Z,99.90
2018-06-21T05:09:28.517Z,99.90
2018-06-21T05:11:56.646Z,99.90
2018-06-21T05:14:24.691Z,99.90
2018-06-21T05:16:52.710Z,99.90
2018-06-21T05:19:20.899Z,99.90
2018-06-21T05:21:49.008Z,99.90
2018-06-21T05:24:17.034Z,99.90
2018-06-21T05:26:45.070Z,99.90
2018-06-21T05:29:13.106Z,99.90
2018-06-21T05:31:41.138Z,99.90
2018-06-21T05:34:09.187Z,99.90
2018-06-21T05:39:07.543Z,99.90
2018-06-21T05:41:35.551Z,99.90
2018-06-21T05:44:03.822Z,99.90
2018-06-21T05:46:31.844Z,99.90
2018-06-21T05:48:59.857Z,99.90
2018-06-21T05:51:27.887Z,99.90
2018-06-21T05:53:55.909Z,99.90
2018-06-21T05:56:23.922Z,99.90
2018-06-21T06:01:19.776Z,99.90
2018-06-21T06:03:47.806Z,99.90
2018-06-21T06:08:43.638Z,99.90
2018-06-21T06:11:11.010Z,99.90
2018-06-21T06:13:38.382Z,99.90
2018-06-21T06:16:06.407Z,99.90
2018-06-21T06:18:34.442Z,99.90
2018-06-21T06:21:01.802Z,99.90
2018-06-21T06:23:29.975Z,99.90
2018-06-21T06:25:57.995Z,99.90
2018-06-21T06:28:26.058Z,99.90
2018-06-21T06:30:54.055Z,99.90
2018-06-21T06:35:49.894Z,99.90
2018-06-21T06:38:17.918Z,99.90
2018-06-21T06:40:45.934Z,99.90
2018-06-21T06:43:13.962Z,99.90
2018-06-21T06:45:41.974Z,99.90
2018-06-21T06:48:09.995Z,99.90
2018-06-21T06:50:38.099Z,99.90
2018-06-21T06:53:06.123Z,99.90
2018-06-21T06:55:34.151Z,99.90
2018-06-21T06:58:02.174Z,99.70
2018-06-21T07:00:30.219Z,99.10
2018-06-21T07:02:58.234Z,97.40
2018-06-21T07:05:26.258Z,96.80
2018-06-21T07:07:54.295Z,96.40
2018-06-21T07:10:21.662Z,96.70
2018-06-21T07:12:49.029Z,98.40
2018-06-21T07:15:16.399Z,97.80
2018-06-21T07:17:44.433Z,97.00
2018-06-21T07:20:11.798Z,95.70
2018-06-21T07:25:06.973Z,93.70
2018-06-21T07:27:34.334Z,93.20
2018-06-21T07:32:30.192Z,91.80
2018-06-21T07:34:58.218Z,91.90
2018-06-21T07:37:25.597Z,91.30
2018-06-21T07:39:53.166Z,90.10
2018-06-21T07:42:20.550Z,89.40
2018-06-21T07:44:47.926Z,89.60
2018-06-21T07:47:15.295Z,87.60
2018-06-21T07:49:42.654Z,85.90
2018-06-21T07:52:10.027Z,87.60
2018-06-21T07:54:37.390Z,87.20
2018-06-21T07:57:04.791Z,86.30
2018-06-21T07:59:32.151Z,85.50
2018-06-21T08:02:00.195Z,86.70
2018-06-21T08:04:27.557Z,85.90
2018-06-21T08:06:54.915Z,87.80
2018-06-21T08:09:22.281Z,87.10
2018-06-21T08:11:50.307Z,87.40
2018-06-21T08:14:18.326Z,87.40
2018-06-21T08:16:46.375Z,89.80
2018-06-21T08:19:14.393Z,89.70
2018-06-21T08:21:41.757Z,90.10
2018-06-21T08:24:10.050Z,90.60
2018-06-21T08:26:37.507Z,90.30
2018-06-21T08:29:04.802Z,88.20
2018-06-21T08:31:32.854Z,89.80
2018-06-21T08:34:00.895Z,91.90
2018-06-21T08:38:55.423Z,90.60
2018-06-21T08:41:23.553Z,89.80
2018-06-21T08:43:51.587Z,88.30
2018-06-21T08:46:19.619Z,88.30
2018-06-21T08:48:46.989Z,88.30
2018-06-21T08:51:15.041Z,85.00
2018-06-21T08:53:43.070Z,81.10
2018-06-21T08:56:11.103Z,80.80
2018-06-21T08:58:39.119Z,80.20
2018-06-21T09:01:07.143Z,79.90
2018-06-21T09:03:35.204Z,75.20
2018-06-21T09:06:03.223Z,73.80
2018-06-21T09:08:31.283Z,77.70
2018-06-21T09:10:58.654Z,78.00
2018-06-21T09:13:32.190Z,78.50
2018-06-21T09:16:00.358Z,75.30
2018-06-21T09:18:28.415Z,74.60
2018-06-21T09:20:56.439Z,75.40
2018-06-21T09:23:24.467Z,76.20
2018-06-21T09:25:52.491Z,74.70
2018-06-21T09:28:20.507Z,73.50
2018-06-21T09:30:48.526Z,73.00
2018-06-21T09:33:16.594Z,73.70
2018-06-21T09:35:44.592Z,76.40
2018-06-21T09:38:18.098Z,76.20
2018-06-21T09:40:51.722Z,77.70
2018-06-21T09:43:25.110Z,79.70
2018-06-21T09:45:58.150Z,75.30
2018-06-21T09:48:28.439Z,77.80
2018-06-21T09:50:56.584Z,78.70
2018-06-21T09:53:24.947Z,80.90
2018-06-21T09:55:52.987Z,78.50
2018-06-21T09:58:21.001Z,76.60
2018-06-21T10:03:22.378Z,76.00
2018-06-21T10:05:50.408Z,74.60
2018-06-21T10:10:46.247Z,76.20
2018-06-21T10:13:14.258Z,78.10
2018-06-21T10:15:42.342Z,75.30
2018-06-21T10:18:10.306Z,74.40
2018-06-21T10:20:38.338Z,70.20
2018-06-21T10:23:06.389Z,71.30
2018-06-21T10:25:34.387Z,71.20
2018-06-21T10:28:02.411Z,68.40
2018-06-21T10:30:30.444Z,67.90
2018-06-21T10:32:58.471Z,69.00
2018-06-21T10:35:26.499Z,72.20
2018-06-21T10:37:54.518Z,68.00
2018-06-21T10:40:22.540Z,68.00
2018-06-21T10:42:50.575Z,69.50
2018-06-21T10:45:18.611Z,67.40
2018-06-21T10:47:46.659Z,67.10
2018-06-21T10:50:14.691Z,66.80
2018-06-21T10:52:42.905Z,68.50
2018-06-21T10:55:10.930Z,69.00
2018-06-21T10:57:38.978Z,68.40
2018-06-21T11:00:07.014Z,70.20
2018-06-21T11:02:35.044Z,68.70
2018-06-21T11:05:03.083Z,68.00
2018-06-21T11:07:31.099Z,70.30
2018-06-21T11:09:59.122Z,67.20
2018-06-21T11:12:27.154Z,67.60
2018-06-21T11:14:54.652Z,69.20
2018-06-21T11:17:22.542Z,70.00
2018-06-21T11:19:50.562Z,69.50
2018-06-21T11:22:18.583Z,69.40
2018-06-21T11:24:46.610Z,70.50
2018-06-21T11:27:14.637Z,69.60
2018-06-21T11:29:42.680Z,66.70
2018-06-21T11:32:10.702Z,68.70
2018-06-21T11:34:38.718Z,64.30
2018-06-21T11:37:06.785Z,66.20
2018-06-21T11:39:34.786Z,65.50
2018-06-21T11:42:02.815Z,69.50
2018-06-21T11:44:31.055Z,63.50
2018-06-21T11:46:59.118Z,58.00
2018-06-21T11:49:27.134Z,57.90
2018-06-21T11:51:54.555Z,60.00
2018-06-21T11:56:50.399Z,60.20
2018-06-21T11:59:18.444Z,60.30
2018-06-21T12:01:46.509Z,59.60
2018-06-21T12:04:14.482Z,60.50
2018-06-21T12:06:41.843Z,60.70
2018-06-21T12:09:10.119Z,61.90
2018-06-21T12:11:37.479Z,61.30
2018-06-21T12:14:05.904Z,61.40
2018-06-21T12:16:33.973Z,59.40
2018-06-21T12:19:02.214Z,59.20
2018-06-21T12:21:30.354Z,58.70
2018-06-21T12:23:58.406Z,59.30
2018-06-21T12:26:26.459Z,60.40
2018-06-21T12:28:54.475Z,59.30
2018-06-21T12:33:49.006Z,59.90
2018-06-21T12:36:16.362Z,59.80
2018-06-21T12:38:43.734Z,60.30
2018-06-21T12:41:11.780Z,60.20
2018-06-21T12:43:40.154Z,60.60
2018-06-21T12:46:07.466Z,62.40
2018-06-21T12:48:34.858Z,61.50
2018-06-21T12:51:02.228Z,63.80
2018-06-21T12:53:29.590Z,60.70
2018-06-21T12:55:57.630Z,62.00
2018-06-21T12:58:25.659Z,63.70
2018-06-21T13:00:53.018Z,64.90
2018-06-21T13:03:20.393Z,64.50
2018-06-21T13:08:27.822Z,63.70
2018-06-21T13:11:07.319Z,61.80
2018-06-21T13:13:35.338Z,62.40
2018-06-21T13:16:03.384Z,61.50
2018-06-21T13:18:30.766Z,61.10
2018-06-21T13:20:58.803Z,59.50
2018-06-21T13:23:26.818Z,60.20
2018-06-21T13:25:54.848Z,60.90
2018-06-21T13:28:22.857Z,62.00
2018-06-21T13:30:50.891Z,59.80
2018-06-21T13:33:18.912Z,57.70
2018-06-21T13:35:46.943Z,59.30
2018-06-21T13:40:42.123Z,56.80
2018-06-21T13:45:37.955Z,58.80
2018-06-21T13:48:05.334Z,60.50
2018-06-21T13:50:33.370Z,61.20
2018-06-21T13:53:01.382Z,62.40
2018-06-21T13:57:57.218Z,64.60
2018-06-21T14:00:24.577Z,69.20
2018-06-21T14:02:52.603Z,71.30
2018-06-21T14:05:20.621Z,73.10
2018-06-21T14:07:48.863Z,74.30
2018-06-21T14:10:16.778Z,74.30
2018-06-21T14:12:44.807Z,76.00
2018-06-21T14:15:12.818Z,77.80
2018-06-21T14:17:40.852Z,78.90
2018-06-21T14:20:08.871Z,78.50
2018-06-21T14:22:36.895Z,79.80
2018-06-21T14:25:05.323Z,80.70
2018-06-21T14:27:33.342Z,79.70
2018-06-21T14:30:00.711Z,79.60
2018-06-21T14:32:28.065Z,80.30
2018-06-21T14:34:56.087Z,80.30
2018-06-21T14:37:24.102Z,81.80
2018-06-21T14:39:52.118Z,82.60
2018-06-21T14:42:20.216Z,83.40
2018-06-21T14:44:48.170Z,83.50
2018-06-21T14:47:16.295Z,84.10
2018-06-21T14:49:44.307Z,83.80
2018-06-21T14:52:12.327Z,83.10
2018-06-21T14:54:40.355Z,83.10
2018-06-21T14:57:08.887Z,82.60
2018-06-21T14:59:36.838Z,83.80
2018-06-21T15:02:04.872Z,82.30
2018-06-21T15:04:32.886Z,82.00
2018-06-21T15:07:00.919Z,82.50
2018-06-21T15:09:28.934Z,82.40
2018-06-21T15:11:56.946Z,83.00
2018-06-21T15:14:25.009Z,82.60
2018-06-21T15:16:53.019Z,82.40
2018-06-21T15:19:21.034Z,80.80
2018-06-21T15:21:49.055Z,79.50
2018-06-21T15:24:17.110Z,80.90
2018-06-21T15:26:44.483Z,81.10
2018-06-21T15:29:11.854Z,81.60
2018-06-21T15:31:39.866Z,81.90
2018-06-21T15:34:08.134Z,83.20
2018-06-21T15:36:36.160Z,83.90
2018-06-21T15:41:37.639Z,83.40
2018-06-21T15:44:05.714Z,84.10
2018-06-21T15:46:33.682Z,85.00
2018-06-21T15:49:01.716Z,85.60
2018-06-21T15:51:29.775Z,85.80
2018-06-21T15:53:57.754Z,85.80
2018-06-21T15:56:25.114Z,86.10
2018-06-21T15:58:52.478Z,86.30
2018-06-21T16:01:20.499Z,86.80
2018-06-21T16:03:47.878Z,86.50
2018-06-21T16:06:15.234Z,87.80
2018-06-21T16:08:42.649Z,87.50
2018-06-21T16:11:10.625Z,87.10
2018-06-21T16:13:37.986Z,87.50
2018-06-21T16:16:06.008Z,87.80
2018-06-21T16:18:33.373Z,86.70
2018-06-21T16:21:00.780Z,87.70
2018-06-21T16:23:28.139Z,89.10
2018-06-21T16:25:56.175Z,90.10
2018-06-21T16:28:24.313Z,91.90
2018-06-21T16:30:52.263Z,94.20
2018-06-21T16:35:47.602Z,99.90
2018-06-21T16:38:14.962Z,99.90
2018-06-21T16:40:42.994Z,99.90
2018-06-21T16:43:11.018Z,99.90
2018-06-21T16:45:39.051Z,99.90
2018-06-21T16:48:07.058Z,99.90
2018-06-21T16:50:35.086Z,99.90
2018-06-21T16:53:03.115Z,99.90
2018-06-21T16:55:30.510Z,97.90
2018-06-21T16:57:58.530Z,94.50
2018-06-21T17:00:26.550Z,93.50
2018-06-21T17:02:54.599Z,88.20
2018-06-21T17:05:22.656Z,84.90
2018-06-21T17:07:50.038Z,79.50
2018-06-21T17:10:18.098Z,80.00
2018-06-21T17:12:46.090Z,75.60
2018-06-21T17:15:14.114Z,74.60
2018-06-21T17:17:42.147Z,72.80
2018-06-21T17:20:09.538Z,73.10
2018-06-21T17:22:37.230Z,72.40
2018-06-21T17:25:05.407Z,71.00
2018-06-21T17:30:01.454Z,68.50
2018-06-21T17:32:29.478Z,67.80
2018-06-21T17:34:56.848Z,67.40
2018-06-21T17:37:25.119Z,67.80
2018-06-21T17:39:53.134Z,67.90
2018-06-21T17:42:21.176Z,66.10
2018-06-21T17:44:49.214Z,64.70
2018-06-21T17:47:17.230Z,65.30
2018-06-21T17:49:45.250Z,65.20
2018-06-21T17:52:13.270Z,64.10
2018-06-21T17:54:41.416Z,62.20
2018-06-21T17:57:08.785Z,62.30
2018-06-21T17:59:36.150Z,58.70
2018-06-21T18:02:03.510Z,59.10
2018-06-21T18:04:31.551Z,58.00
2018-06-21T18:06:58.918Z,56.70
2018-06-21T18:09:26.281Z,55.30
2018-06-21T18:11:53.662Z,55.00
2018-06-21T18:14:21.670Z,54.40
2018-06-21T18:16:49.706Z,53.40
2018-06-21T18:19:17.738Z,52.90
2018-06-21T18:21:45.793Z,53.00
2018-06-21T18:24:13.806Z,52.10
2018-06-21T18:26:41.822Z,52.00
2018-06-21T18:29:10.019Z,51.70
2018-06-21T18:31:38.003Z,51.20
2018-06-21T18:34:06.007Z,51.30
2018-06-21T18:36:34.042Z,52.00
2018-06-21T18:39:02.054Z,51.70
2018-06-21T18:41:30.075Z,51.30
2018-06-21T18:43:58.102Z,50.90
2018-06-21T18:46:26.126Z,50.60
2018-06-21T18:48:54.299Z,50.70
2018-06-21T18:53:50.140Z,50.90
2018-06-21T18:56:17.507Z,50.90
2018-06-21T18:58:44.893Z,50.90
2018-06-21T19:01:12.257Z,51.00
2018-06-21T19:03:39.659Z,51.40
2018-06-21T19:06:11.343Z,51.40
2018-06-21T19:08:44.368Z,51.50
2018-06-21T19:11:17.377Z,52.00
2018-06-21T19:13:44.751Z,52.60
2018-06-21T19:16:12.206Z,52.50
2018-06-21T19:18:40.227Z,52.10
2018-06-21T19:21:08.259Z,51.70
2018-06-21T19:23:36.298Z,51.90
2018-06-21T19:28:32.551Z,52.00
2018-06-21T19:31:00.666Z,52.10
2018-06-21T19:33:28.715Z,52.20
2018-06-21T19:35:56.778Z,52.50
2018-06-21T19:40:52.684Z,52.60
2018-06-21T19:43:20.875Z,52.90
2018-06-21T19:48:16.643Z,53.90
2018-06-21T19:50:44.726Z,53.10
2018-06-21T19:53:12.759Z,53.50
2018-06-21T19:58:08.725Z,53.90
2018-06-21T20:00:36.851Z,53.40
2018-06-21T20:03:04.910Z,53.40
2018-06-21T20:05:32.960Z,53.40
2018-06-21T20:08:00.999Z,54.00
2018-06-21T20:10:29.055Z,54.40
2018-06-21T20:12:57.083Z,54.80
2018-06-21T20:15:25.115Z,55.20
2018-06-21T20:17:53.168Z,55.70
2018-06-21T20:20:26.842Z,55.20
2018-06-21T20:22:54.868Z,55.70
2018-06-21T20:25:22.914Z,56.00
2018-06-21T20:30:18.752Z,56.10
2018-06-21T20:32:46.932Z,56.10
2018-06-21T20:35:14.942Z,56.40
2018-06-21T20:40:10.790Z,57.10
2018-06-21T20:42:38.802Z,57.30
2018-06-21T20:45:06.828Z,57.10
2018-06-21T20:47:34.855Z,57.00
2018-06-21T20:50:02.884Z,57.10
2018-06-21T20:52:31.062Z,57.20
2018-06-21T20:54:59.769Z,57.40
2018-06-21T20:57:28.114Z,57.30
2018-06-21T20:59:56.163Z,57.30
2018-06-21T21:02:24.347Z,57.40
2018-06-21T21:05:09.718Z,57.40
2018-06-21T21:07:38.479Z,57.30
2018-06-21T21:10:08.058Z,57.40
2018-06-21T21:12:36.258Z,57.80
2018-06-21T21:17:33.908Z,58.20
2018-06-21T21:20:02.954Z,58.50
2018-06-21T21:22:31.105Z,58.90
2018-06-21T21:24:59.970Z,59.20
2018-06-21T21:27:28.043Z,59.60
2018-06-21T21:29:56.634Z,59.70
2018-06-21T21:32:25.376Z,60.40
2018-06-21T21:34:56.110Z,60.40
2018-06-21T21:37:24.240Z,60.40
2018-06-21T21:39:58.650Z,60.70
2018-06-21T21:42:27.111Z,60.10
2018-06-21T21:44:55.153Z,60.70
2018-06-21T21:47:23.175Z,60.20
2018-06-21T21:52:19.118Z,60.00
2018-06-21T21:54:47.395Z,60.20
2018-06-21T21:57:15.447Z,60.50
2018-06-21T21:59:43.487Z,60.90
2018-06-21T22:02:11.514Z,61.60
2018-06-21T22:04:39.542Z,61.10
2018-06-21T22:07:07.598Z,60.90
2018-06-21T22:12:03.471Z,61.50
2018-06-21T22:14:31.518Z,61.70
2018-06-21T22:16:59.551Z,62.10
2018-06-21T22:19:27.571Z,61.80
2018-06-21T22:21:55.592Z,62.60
2018-06-21T22:24:23.851Z,62.50
2018-06-21T22:26:51.865Z,62.20
2018-06-21T22:31:47.730Z,61.50
2018-06-21T22:34:15.763Z,61.50
2018-06-21T22:36:43.807Z,61.60
2018-06-21T22:39:12.903Z,61.60
2018-06-21T22:41:42.151Z,61.60
2018-06-21T22:44:10.347Z,62.40
2018-06-21T22:46:38.438Z,62.70
2018-06-21T22:49:06.986Z,63.00
2018-06-21T22:51:35.139Z,63.40
2018-06-21T22:54:03.183Z,64.30
2018-06-21T22:56:31.199Z,64.50
2018-06-21T22:58:59.226Z,64.60
2018-06-21T23:01:27.242Z,65.20
2018-06-21T23:03:55.274Z,65.50
2018-06-21T23:06:23.327Z,65.60
2018-06-21T23:11:19.168Z,67.00
2018-06-21T23:13:47.195Z,67.60
2018-06-21T23:16:15.234Z,68.90
2018-06-21T23:18:54.996Z,70.10
2018-06-21T23:21:23.035Z,70.80
2018-06-21T23:23:51.077Z,71.30
2018-06-21T23:26:19.086Z,71.70
2018-06-21T23:28:47.103Z,72.50
2018-06-21T23:31:15.142Z,73.50
2018-06-21T23:33:43.199Z,74.20
2018-06-21T23:38:39.065Z,75.40
2018-06-21T23:41:07.111Z,76.50
2018-06-21T23:43:35.150Z,77.20
2018-06-21T23:46:03.175Z,77.90
2018-06-21T23:48:31.191Z,78.40
2018-06-21T23:50:59.218Z,78.40
2018-06-21T23:53:27.238Z,78.40
2018-06-21T23:58:23.078Z,76.70
